Time;durP1;ratioP1;P1;durP2;ratioP2;P2;SDS_P1;SDS_P2;PMS_P1;PMS_P2;Temp;Humidity;BMP_temperature;BMP_pressure;BME280_temperature;BME280_humidity;BME280_pressure;Samples;Min_cycle;Max_cycle;Signal;HPM_P1;HPM_P2
2020/12/29 00:02:36;;;;;;;6.15;2.77;;;;;;;5.69;74.29;96259.16;4442456;79;21407;-91
2020/12/29 00:08:38;;;;;;;4.65;2.25;;;;;;;5.92;74.09;96233.48;4440268;78;21145;-90
2020/12/29 00:14:39;;;;;;;4.22;2.30;;;;;;;5.94;73.93;96212.10;4442264;79;21164;-90
2020/12/29 00:20:41;;;;;;;5.08;2.45;;;;;;;5.96;74.07;96204.32;4331301;80;21194;-91
2020/12/29 00:26:42;;;;;;;4.65;2.70;;;;;;;6.03;73.99;96206.91;4290348;82;21593;-90
2020/12/29 00:32:44;;;;;;;4.37;2.25;;;;;;;6.02;73.91;96189.87;4297575;81;21197;-90
2020/12/29 00:38:46;;;;;;;4.08;2.42;;;;;;;6.03;74.08;96193.33;4286452;82;21151;-91
2020/12/29 00:44:47;;;;;;;3.80;2.40;;;;;;;6.07;73.92;96174.47;4287858;82;21708;-90
2020/12/29 00:50:49;;;;;;;3.22;2.33;;;;;;;5.93;73.90;96159.77;4289050;81;21623;-91
2020/12/29 00:56:51;;;;;;;5.22;2.72;;;;;;;6.10;74.04;96157.34;4289530;81;21593;-92
2020/12/29 01:02:53;;;;;;;3.60;2.22;;;;;;;6.42;73.55;96146.52;4289207;81;21175;-92
2020/12/29 01:08:56;;;;;;;5.47;2.37;;;;;;;6.63;72.94;96129.22;4296111;81;21188;-92
2020/12/29 01:14:57;;;;;;;5.35;2.77;;;;;;;6.77;72.63;96130.30;4268584;81;21155;-92
2020/12/29 01:21:01;;;;;;;3.70;2.40;;;;;;;6.88;72.39;96132.22;4283458;81;21736;-90
2020/12/29 01:27:02;;;;;;;6.12;2.45;;;;;;;6.97;71.97;96123.52;4285560;81;21173;-91
2020/12/29 01:33:05;;;;;;;3.70;2.27;;;;;;;7.04;71.46;96118.69;4281577;82;21691;-92
2020/12/29 01:39:06;;;;;;;3.17;2.12;;;;;;;7.14;71.96;96106.80;4333115;80;21153;-91
2020/12/29 01:45:11;;;;;;;3.33;2.40;;;;;;;7.21;71.97;96097.72;4438054;79;21196;-92
2020/12/29 01:51:13;;;;;;;4.33;2.52;;;;;;;7.26;71.64;96097.23;4444669;78;21586;-92
2020/12/29 01:57:14;;;;;;;5.42;2.35;;;;;;;7.25;71.42;96074.69;4437937;78;21102;-93
2020/12/29 02:03:17;;;;;;;3.92;1.70;;;;;;;7.21;71.40;96080.81;4436366;78;21160;-90
2020/12/29 02:09:19;;;;;;;2.92;1.55;;;;;;;7.17;71.35;96080.11;4441575;78;21666;-91
2020/12/29 02:15:20;;;;;;;3.95;1.65;;;;;;;7.21;71.57;96090.34;4448420;78;21149;-92
2020/12/29 02:21:22;;;;;;;3.52;1.67;;;;;;;7.22;71.49;96076.89;4442503;78;21158;-92
2020/12/29 02:27:27;;;;;;;3.22;1.80;;;;;;;7.16;71.49;96066.34;4432628;79;21101;-92
2020/12/29 02:33:29;;;;;;;8.60;2.70;;;;;;;7.03;71.53;96058.66;4429962;79;21113;-91
2020/12/29 02:39:55;;;;;;;3.00;1.70;;;;;;;6.90;71.67;96054.30;4443734;79;21114;-91
2020/12/29 02:45:57;;;;;;;2.25;1.65;;;;;;;6.75;71.95;96063.95;4432994;79;21130;-92
2020/12/29 02:51:58;;;;;;;7.65;3.42;;;;;;;6.73;72.21;96072.53;4436142;80;21142;-94
2020/12/29 02:58:00;;;;;;;57.53;26.10;;;;;;;6.53;72.27;96094.09;4438325;79;21157;-92
2020/12/29 03:04:02;;;;;;;33.70;16.17;;;;;;;6.39;72.54;96100.55;4431154;79;21129;-91
2020/12/29 03:10:09;;;;;;;4.10;1.92;;;;;;;6.22;73.03;96088.84;4440918;78;21660;-91
2020/12/29 03:16:11;;;;;;;3.52;1.95;;;;;;;6.24;73.65;96042.24;4439789;78;21578;-90
2020/12/29 03:22:12;;;;;;;4.65;1.60;;;;;;;6.35;74.14;96027.86;4330430;81;21150;-89
2020/12/29 03:28:14;;;;;;;3.77;1.30;;;;;;;6.39;74.17;96010.30;4329038;82;21532;-90
2020/12/29 03:40:28;;;;;;;2.90;1.72;;;;;;;6.47;74.74;95981.03;4497702;77;22907;-92
2020/12/29 03:46:30;;;;;;;4.72;2.50;;;;;;;6.35;74.56;95958.00;4436610;79;21161;-92
2020/12/29 03:52:31;;;;;;;4.58;2.00;;;;;;;6.23;74.71;95972.20;4416737;79;21638;-92
2020/12/29 03:58:33;;;;;;;9.03;2.92;;;;;;;5.96;74.75;95978.96;4429801;80;21184;-92
2020/12/29 04:04:34;;;;;;;4.58;1.98;;;;;;;5.72;75.26;95978.78;4425338;80;21189;-93
2020/12/29 04:10:36;;;;;;;3.12;1.60;;;;;;;5.61;75.72;95972.20;4432414;78;21175;-92
2020/12/29 04:16:38;;;;;;;1.52;0.72;;;;;;;5.58;75.92;95979.81;4429094;80;21589;-91
2020/12/29 04:22:41;;;;;;;1.40;0.62;;;;;;;5.74;76.10;95982.63;4277903;81;21183;-91
2020/12/29 04:28:43;;;;;;;1.80;0.75;;;;;;;6.01;76.01;95949.97;4273610;81;21296;-92
2020/12/29 04:34:45;;;;;;;1.62;1.27;;;;;;;6.19;75.67;95949.79;4271479;81;21202;-90
2020/12/29 04:40:47;;;;;;;2.75;0.93;;;;;;;6.26;75.45;95949.62;4241154;83;21616;-91
2020/12/29 04:46:50;;;;;;;7.33;1.57;;;;;;;6.27;75.23;95966.12;4236508;82;21183;-93
2020/12/29 04:52:57;;;;;;;5.25;1.65;;;;;;;6.16;75.24;95994.08;4237021;83;21604;-92
2020/12/29 04:59:04;;;;;;;2.67;1.20;;;;;;;6.07;75.37;95987.09;4237688;83;21191;-93
2020/12/29 05:05:05;;;;;;;3.00;1.30;;;;;;;6.06;75.44;95998.38;4247115;83;21617;-92
2020/12/29 05:11:07;;;;;;;6.05;2.37;;;;;;;6.02;75.41;96014.72;4234706;82;21154;-93
2020/12/29 05:17:08;;;;;;;3.45;1.12;;;;;;;5.88;75.60;96032.63;4240868;82;21624;-92
2020/12/29 05:23:11;;;;;;;2.15;0.88;;;;;;;5.79;75.74;96046.53;4238956;83;21175;-94
2020/12/29 05:29:20;;;;;;;3.87;1.62;;;;;;;5.84;75.75;96048.80;4247312;82;21171;-92
2020/12/29 05:35:21;;;;;;;2.75;1.70;;;;;;;5.94;75.82;96048.61;4241207;83;21370;-91
2020/12/29 05:41:23;;;;;;;2.20;1.40;;;;;;;6.14;75.46;96059.49;4156083;85;21785;-91
2020/12/29 05:47:26;;;;;;;2.62;1.22;;;;;;;6.28;74.75;96081.73;4169509;83;21190;-92
2020/12/29 05:53:31;;;;;;;3.77;1.50;;;;;;;6.51;73.93;96097.23;4170845;83;21534;-92
2020/12/29 05:59:35;;;;;;;2.58;0.80;;;;;;;6.56;74.25;96104.13;4173609;83;21200;-92
2020/12/29 06:05:38;;;;;;;2.85;1.00;;;;;;;6.54;74.82;96109.98;4137732;84;21558;-91
2020/12/29 06:11:50;;;;;;;3.65;1.77;;;;;;;6.41;75.35;96132.16;4170004;83;21190;-92
2020/12/29 06:18:01;;;;;;;2.77;1.45;;;;;;;6.21;75.69;96156.58;4167576;83;21628;-91
2020/12/29 06:24:03;;;;;;;9.05;4.12;;;;;;;6.02;75.94;96173.58;4169000;83;21221;-90
2020/12/29 06:30:04;;;;;;;11.63;5.37;;;;;;;5.79;76.39;96174.89;4168856;83;21222;-90
2020/12/29 06:36:09;;;;;;;7.25;3.60;;;;;;;5.73;76.70;96197.47;4175115;83;21200;-92
2020/12/29 06:42:12;;;;;;;4.10;2.15;;;;;;;5.63;76.80;96215.44;4206070;82;21154;-92
2020/12/29 06:48:21;;;;;;;1.65;0.70;;;;;;;5.63;77.04;96229.01;4217253;82;21654;-92
2020/12/29 06:54:48;;;;;;;4.08;0.95;;;;;;;5.73;76.99;96263.36;4364048;79;21164;-92
2020/12/29 07:00:49;;;;;;;3.15;1.00;;;;;;;5.94;76.59;96301.70;4384933;79;21300;-92
2020/12/29 07:06:51;;;;;;;4.67;1.22;;;;;;;6.04;76.30;96322.52;4392531;79;22521;-92
2020/12/29 07:12:52;;;;;;;2.75;0.82;;;;;;;6.04;76.14;96363.26;4391252;79;21583;-91
2020/12/29 07:19:09;;;;;;;1.70;1.07;;;;;;;6.01;75.49;96379.77;4396195;79;21616;-92
2020/12/29 07:25:12;;;;;;;2.33;0.67;;;;;;;5.92;75.79;96422.94;4389623;79;21184;-92
2020/12/29 07:31:14;;;;;;;2.58;1.10;;;;;;;5.86;75.97;96446.28;4371541;79;21221;-92
2020/12/29 07:37:22;;;;;;;1.17;0.60;;;;;;;5.82;75.88;96466.51;4393319;79;21117;-91
2020/12/29 07:43:23;;;;;;;2.00;1.10;;;;;;;5.82;76.45;96495.80;4368309;79;21159;-92
2020/12/29 07:49:25;;;;;;;2.77;1.22;;;;;;;5.92;76.42;96522.05;4212798;82;21399;-92
2020/12/29 07:55:26;;;;;;;3.92;1.22;;;;;;;6.24;75.50;96545.58;4379231;79;21297;-92
2020/12/29 08:01:28;;;;;;;2.92;1.35;;;;;;;6.52;73.76;96568.94;4374970;79;21308;-91
2020/12/29 08:07:29;;;;;;;2.42;1.22;;;;;;;6.72;74.80;96586.77;4334793;80;21219;-91
2020/12/29 08:13:31;;;;;;;1.95;1.20;;;;;;;6.77;73.45;96605.33;4370239;79;21300;-91
2020/12/29 08:19:33;;;;;;;2.95;1.20;;;;;;;6.72;71.11;96627.55;4365522;79;21664;-92
2020/12/29 08:25:34;;;;;;;3.83;1.37;;;;;;;6.67;70.40;96655.18;4364233;79;21194;-91
2020/12/29 08:31:37;;;;;;;2.92;1.37;;;;;;;6.67;70.71;96675.57;4387165;80;21597;-93
2020/12/29 08:37:50;;;;;;;2.95;1.67;;;;;;;6.79;70.97;96699.52;4377741;79;21198;-92
2020/12/29 08:43:53;;;;;;;2.85;1.32;;;;;;;7.02;70.26;96700.42;4366241;79;21164;-94
2020/12/29 08:49:54;;;;;;;2.85;1.40;;;;;;;7.26;68.17;96683.03;4381566;79;21186;-92
2020/12/29 08:55:56;;;;;;;4.85;1.62;;;;;;;7.39;66.57;96705.78;4381036;80;21186;-93
2020/12/29 09:02:01;;;;;;;6.35;1.98;;;;;;;7.52;62.94;96723.13;4220617;82;21174;-92
2020/12/29 09:08:02;;;;;;;3.65;1.72;;;;;;;7.81;61.58;96739.86;4373569;79;21129;-92
2020/12/29 09:14:05;;;;;;;3.35;1.72;;;;;;;8.14;60.36;96762.73;4376438;79;21154;-91
2020/12/29 09:20:23;;;;;;;5.15;1.92;;;;;;;8.51;63.46;96779.70;4375623;79;21684;-93
2020/12/29 09:26:26;;;;;;;2.70;1.50;;;;;;;8.80;58.00;96793.64;4366835;79;21151;-90
2020/12/29 09:32:28;;;;;;;3.15;1.22;;;;;;;8.98;58.25;96838.54;4351284;79;21196;-93
2020/12/29 09:38:31;;;;;;;3.67;1.32;;;;;;;9.15;57.68;96838.05;4386116;79;21183;-92
2020/12/29 09:44:32;;;;;;;4.22;1.40;;;;;;;9.37;57.58;96848.77;4384419;79;21155;-93
2020/12/29 09:50:34;;;;;;;2.90;1.20;;;;;;;9.73;57.99;96863.30;4392518;79;21147;-92
2020/12/29 09:56:35;;;;;;;2.83;1.32;;;;;;;10.07;57.45;96866.53;4391027;79;21170;-93
2020/12/29 10:02:37;;;;;;;2.27;1.00;;;;;;;10.36;56.17;96874.91;4386125;79;21143;-92
2020/12/29 10:08:38;;;;;;;2.77;1.12;;;;;;;10.41;54.89;96887.50;4380999;80;21160;-93
2020/12/29 10:14:43;;;;;;;2.72;1.02;;;;;;;10.69;50.92;96901.92;4365837;80;21128;-93
2020/12/29 10:20:47;;;;;;;1.87;0.88;;;;;;;10.68;52.27;96907.82;4320779;80;21115;-92
2020/12/29 10:26:52;;;;;;;2.30;0.98;;;;;;;11.15;52.25;96927.45;4379960;79;21190;-92
2020/12/29 10:32:53;;;;;;;3.95;1.02;;;;;;;11.47;52.64;96930.94;4377294;80;21144;-92
2020/12/29 10:38:55;;;;;;;3.27;1.30;;;;;;;11.44;52.27;96926.91;4370815;79;21172;-92
2020/12/29 10:44:56;;;;;;;2.60;1.22;;;;;;;11.47;51.40;96939.75;4201618;83;21237;-93
2020/12/29 10:50:58;;;;;;;2.77;1.15;;;;;;;11.13;50.43;96939.58;4350887;81;21570;-92
2020/12/29 10:57:00;;;;;;;1.92;1.10;;;;;;;11.28;50.11;96946.09;4213421;83;21150;-92
2020/12/29 11:03:01;;;;;;;7.87;1.80;;;;;;;11.04;50.19;96942.73;4204633;83;21218;-93
2020/12/29 11:09:04;;;;;;;4.53;2.50;;;;;;;10.80;49.34;96946.83;4356443;80;21167;-93
2020/12/29 11:15:05;;;;;;;4.80;2.40;;;;;;;10.48;50.75;96948.88;4356833;80;21196;-92
2020/12/29 11:21:07;;;;;;;2.08;0.98;;;;;;;10.43;49.96;96952.73;4359990;80;21559;-92
2020/12/29 11:27:08;;;;;;;2.80;1.17;;;;;;;10.23;47.94;96962.88;4362095;80;21762;-92
2020/12/29 11:33:10;;;;;;;1.95;1.00;;;;;;;10.33;47.88;96979.09;4371945;80;22138;-93
2020/12/29 11:39:12;;;;;;;1.92;1.02;;;;;;;9.99;48.09;96979.15;4361165;79;21599;-93
2020/12/29 11:45:14;;;;;;;2.20;0.85;;;;;;;9.70;48.45;96996.64;4389183;79;21115;-92
2020/12/29 11:51:15;;;;;;;2.20;0.90;;;;;;;9.58;48.45;97014.22;4378187;79;21190;-93
2020/12/29 11:57:17;;;;;;;2.40;1.50;;;;;;;9.44;49.84;97025.54;4382539;80;21195;-93
2020/12/29 12:03:18;;;;;;;5.50;2.17;;;;;;;9.26;49.14;97039.29;4361863;79;21299;-92
2020/12/29 12:09:20;;;;;;;7.37;2.80;;;;;;;9.06;48.41;97035.11;4392974;79;21219;-92
2020/12/29 12:15:21;;;;;;;19.82;8.10;;;;;;;9.15;49.21;97040.81;4388833;79;21154;-94
2020/12/29 12:21:29;;;;;;;21.60;7.72;;;;;;;9.31;47.32;97051.90;4234698;84;21375;-93
2020/12/29 12:27:31;;;;;;;6.92;2.25;;;;;;;9.30;48.87;97048.22;4380830;79;21691;-92
2020/12/29 12:33:33;;;;;;;1.77;1.17;;;;;;;9.15;48.30;97051.73;4379533;79;21298;-91
2020/12/29 12:39:34;;;;;;;1.42;1.00;;;;;;;9.15;47.94;97051.73;4376944;80;21144;-94
2020/12/29 12:51:47;;;;;;;4.35;1.80;;;;;;;9.24;47.49;97064.27;4601283;76;22957;-92
2020/12/29 12:57:49;;;;;;;7.47;2.15;;;;;;;9.15;47.79;97085.08;4494170;78;21160;-93
2020/12/29 13:03:51;;;;;;;3.52;1.57;;;;;;;9.10;47.29;97093.14;4488904;78;21647;-92
2020/12/29 13:09:52;;;;;;;3.40;1.62;;;;;;;9.01;47.10;97089.36;4484632;78;21429;-91
2020/12/29 13:15:54;;;;;;;2.33;0.90;;;;;;;9.03;44.57;97106.89;4493389;78;21169;-91
2020/12/29 13:21:55;;;;;;;7.30;5.22;;;;;;;9.00;44.41;97120.58;4493527;78;21121;-91
2020/12/29 13:27:57;;;;;;;4.30;1.98;;;;;;;8.72;45.64;97131.22;4489436;78;21128;-91
2020/12/29 13:33:58;;;;;;;3.05;2.15;;;;;;;8.52;46.54;97156.18;4491877;78;21153;-90
2020/12/29 13:40:00;;;;;;;3.83;1.65;;;;;;;8.33;47.23;97174.47;4486982;78;21610;-92
2020/12/29 13:46:04;;;;;;;7.97;5.30;;;;;;;8.22;47.93;97190.14;4487772;78;21869;-92
2020/12/29 13:52:05;;;;;;;9.95;4.47;;;;;;;8.07;48.74;97190.63;4485431;78;21610;-92
2020/12/29 13:58:07;;;;;;;2.75;1.30;;;;;;;7.99;48.98;97187.98;4491377;78;21128;-93
2020/12/29 14:04:14;;;;;;;4.70;1.77;;;;;;;7.85;49.51;97202.28;4485692;78;21662;-94
2020/12/29 14:10:16;;;;;;;5.00;2.25;;;;;;;7.63;50.33;97213.91;4467865;78;21122;-92
2020/12/29 14:16:21;;;;;;;4.40;1.90;;;;;;;7.47;50.73;97218.28;4496677;78;21137;-92
2020/12/29 14:22:22;;;;;;;7.58;3.20;;;;;;;7.42;50.85;97229.58;4484848;78;21136;-91
2020/12/29 14:28:24;;;;;;;6.80;3.83;;;;;;;7.12;51.39;97232.81;4490521;78;21184;-90
2020/12/29 14:34:26;;;;;;;10.15;4.28;;;;;;;6.92;51.60;97250.73;4487430;78;21583;-91
2020/12/29 14:40:28;;;;;;;10.80;4.35;;;;;;;6.78;52.17;97257.56;4492748;78;21180;-92
2020/12/29 14:46:30;;;;;;;9.93;4.47;;;;;;;6.54;52.58;97276.62;4489675;78;21163;-93
2020/12/29 14:52:31;;;;;;;16.32;8.33;;;;;;;6.33;52.68;97274.69;4487225;78;21136;-91
2020/12/29 14:58:33;;;;;;;15.70;6.30;;;;;;;6.11;53.40;97286.70;4486842;78;21659;-90
2020/12/29 15:04:39;;;;;;;56.33;21.48;;;;;;;5.88;53.46;97284.92;4481706;78;21258;-91
2020/12/29 15:10:41;;;;;;;35.15;13.45;;;;;;;5.47;54.36;97274.09;4487806;78;21137;-91
2020/12/29 15:16:42;;;;;;;47.98;23.42;;;;;;;5.20;54.76;97279.63;4495444;78;21144;-90
2020/12/29 15:22:44;;;;;;;41.90;15.80;;;;;;;4.99;55.19;97271.38;4490179;78;21649;-89
2020/12/29 15:28:46;;;;;;;56.90;17.32;;;;;;;4.60;56.45;97289.52;4485366;78;21171;-90
2020/12/29 15:34:47;;;;;;;32.23;13.90;;;;;;;4.51;56.72;97291.02;4491786;78;21141;-94
2020/12/29 15:40:49;;;;;;;36.20;13.45;;;;;;;4.26;57.07;97288.09;4487370;78;21164;-92
2020/12/29 15:46:51;;;;;;;33.13;14.20;;;;;;;4.22;58.09;97293.28;4490094;78;21169;-92
2020/12/29 15:52:52;;;;;;;32.08;15.60;;;;;;;4.11;58.16;97297.26;4496540;78;21216;-91
2020/12/29 15:58:54;;;;;;;79.25;24.07;;;;;;;3.99;58.44;97308.94;4487742;78;21137;-91
2020/12/29 16:04:55;;;;;;;83.50;33.63;;;;;;;3.83;58.95;97318.64;4459687;78;21153;-92
2020/12/29 16:10:57;;;;;;;69.85;28.85;;;;;;;3.73;59.46;97328.00;4487534;78;21120;-93
2020/12/29 16:16:58;;;;;;;69.65;28.50;;;;;;;3.65;60.20;97343.36;4491311;79;21168;-92
2020/12/29 16:29:34;;;;;;;57.73;27.10;;;;;;;3.46;60.88;97369.20;4494486;78;21184;-93
2020/12/29 16:35:36;;;;;;;60.17;26.48;;;;;;;3.40;61.25;97378.03;4489995;78;21681;-94
2020/12/29 16:41:38;;;;;;;71.85;29.85;;;;;;;3.41;61.69;97387.70;4494499;77;21169;-93
2020/12/29 16:47:40;;;;;;;43.60;17.92;;;;;;;3.40;62.06;97390.97;4474262;78;21160;-91
2020/12/29 16:53:42;;;;;;;44.98;20.60;;;;;;;3.29;62.14;97396.05;4484883;79;21177;-92
2020/12/29 16:59:43;;;;;;;46.02;19.12;;;;;;;3.23;62.52;97403.67;4485396;79;21148;-92
2020/12/29 17:05:45;;;;;;;46.15;18.90;;;;;;;3.17;62.78;97401.08;4491648;79;21156;-92
2020/12/29 17:11:46;;;;;;;48.78;18.57;;;;;;;3.11;63.43;97416.85;4484144;79;21772;-92
2020/12/29 17:17:47;;;;;;;51.55;22.35;;;;;;;3.18;63.35;97433.73;4478993;78;21129;-92
2020/12/29 17:30:56;;;;;;;56.80;25.12;;;;;;;3.21;64.44;97450.61;4428275;79;21101;-91
2020/12/29 17:36:58;;;;;;;65.65;29.92;;;;;;;3.33;64.55;97447.69;4442002;80;21268;-92
2020/12/29 17:43:00;;;;;;;64.47;30.08;;;;;;;3.39;64.88;97456.25;4462782;78;21181;-90
2020/12/29 17:49:01;;;;;;;54.13;24.18;;;;;;;3.49;64.94;97474.01;4462142;78;21190;-92
2020/12/29 17:55:03;;;;;;;68.07;29.92;;;;;;;3.38;64.94;97478.48;4432509;79;21138;-91
2020/12/29 18:01:05;;;;;;;57.50;23.20;;;;;;;3.27;65.10;97496.47;4433103;80;21311;-92
2020/12/29 18:07:07;;;;;;;43.33;19.15;;;;;;;3.13;65.50;97509.17;4405623;79;21201;-92
2020/12/29 18:13:16;;;;;;;63.40;25.12;;;;;;;2.96;65.69;97525.13;4395840;80;21617;-91
2020/12/29 18:19:18;;;;;;;52.58;25.37;;;;;;;2.79;66.39;97539.08;4402121;78;21619;-90
2020/12/29 18:25:19;;;;;;;66.57;27.95;;;;;;;2.89;67.15;97543.91;4426226;79;21387;-92
2020/12/29 18:31:24;;;;;;;54.15;25.05;;;;;;;3.06;67.20;97556.95;4450317;78;21133;-92
2020/12/29 18:37:25;;;;;;;35.13;16.17;;;;;;;3.20;67.34;97572.06;4416913;79;21331;-92
2020/12/29 18:43:28;;;;;;;32.98;16.62;;;;;;;3.32;67.15;97584.63;4422940;79;21134;-92
2020/12/29 18:49:29;;;;;;;43.73;17.30;;;;;;;3.54;67.49;97596.02;4434277;78;21610;-92
2020/12/29 18:55:33;;;;;;;48.92;19.57;;;;;;;3.61;67.82;97617.20;4437573;78;21646;-92
2020/12/29 19:01:35;;;;;;;52.58;19.65;;;;;;;3.61;67.89;97619.11;4440051;78;21119;-93
2020/12/29 19:07:36;;;;;;;50.92;20.82;;;;;;;3.67;67.95;97614.95;4443119;79;21177;-91
2020/12/29 19:13:38;;;;;;;64.37;26.10;;;;;;;3.70;68.12;97629.91;4445210;78;21133;-92
2020/12/29 19:19:40;;;;;;;63.13;28.10;;;;;;;3.78;68.30;97632.94;4445725;78;21185;-93
2020/12/29 19:25:42;;;;;;;89.58;38.50;;;;;;;3.79;68.63;97654.78;4434558;78;21170;-91
2020/12/29 19:31:45;;;;;;;53.90;24.63;;;;;;;3.81;68.79;97671.45;4434028;79;21940;-92
2020/12/29 19:37:46;;;;;;;44.55;20.55;;;;;;;3.72;68.67;97660.10;4443260;78;21142;-91
2020/12/29 19:43:48;;;;;;;46.02;18.37;;;;;;;3.82;69.27;97668.95;4425339;78;21134;-94
2020/12/29 19:49:50;;;;;;;56.45;25.48;;;;;;;3.73;69.26;97669.77;4440839;78;21170;-91
2020/12/29 19:55:53;;;;;;;94.80;42.10;;;;;;;3.76;69.67;97690.70;4389371;79;21149;-93
2020/12/29 20:01:54;;;;;;;54.33;22.82;;;;;;;3.72;70.25;97702.61;4415480;79;21177;-92
2020/12/29 20:08:08;;;;;;;89.60;37.00;;;;;;;4.04;70.11;97703.34;4415375;79;21157;-92
2020/12/29 20:14:10;;;;;;;57.90;23.05;;;;;;;4.32;71.12;97713.26;4391703;79;21141;-90
2020/12/29 20:20:12;;;;;;;25.52;10.35;;;;;;;4.50;70.49;97707.54;4392574;79;21197;-91
2020/12/29 20:26:14;;;;;;;30.62;10.08;;;;;;;4.99;71.07;97707.41;4408736;79;21371;-91
2020/12/29 20:32:16;;;;;;;23.83;9.35;;;;;;;5.70;70.07;97719.84;4399836;80;21161;-93
2020/12/29 20:38:18;;;;;;;12.98;5.97;;;;;;;5.74;69.72;97711.14;4414804;79;21406;-93
2020/12/29 20:44:19;;;;;;;21.73;8.98;;;;;;;5.89;69.87;97712.28;4417085;79;21755;-92
2020/12/29 20:50:21;;;;;;;12.73;5.65;;;;;;;6.11;69.52;97699.08;4425834;78;21164;-91
2020/12/29 20:56:23;;;;;;;14.05;6.00;;;;;;;6.10;69.35;97698.89;4446335;78;21130;-93
2020/12/29 21:02:24;;;;;;;13.22;5.70;;;;;;;5.98;69.43;97692.37;4335497;80;21165;-92
2020/12/29 21:08:26;;;;;;;10.50;4.42;;;;;;;5.77;69.47;97704.95;4340044;80;21183;-92
2020/12/29 21:14:45;;;;;;;8.88;4.12;;;;;;;5.67;69.78;97700.22;4298570;81;21170;-92
2020/12/29 21:20:54;;;;;;;9.30;2.98;;;;;;;5.48;69.88;97710.67;4304396;82;21175;-93
2020/12/29 21:26:56;;;;;;;16.82;6.90;;;;;;;5.48;70.56;97721.53;4293953;82;21164;-93
2020/12/29 21:32:57;;;;;;;11.18;3.75;;;;;;;5.54;70.06;97725.50;4301861;82;21130;-93
2020/12/29 21:38:59;;;;;;;10.65;3.92;;;;;;;5.57;70.76;97730.19;4305641;82;21904;-92
2020/12/29 21:45:05;;;;;;;4.97;2.12;;;;;;;5.65;70.88;97729.11;4300836;81;21287;-93
2020/12/29 21:51:14;;;;;;;5.35;1.60;;;;;;;6.01;71.49;97721.49;4306027;81;21668;-92
2020/12/29 21:57:15;;;;;;;6.28;2.00;;;;;;;6.57;71.22;97727.95;4332786;81;21150;-94
2020/12/29 22:03:24;;;;;;;3.87;1.50;;;;;;;6.89;70.30;97728.14;4315871;81;21166;-92
2020/12/29 22:09:26;;;;;;;4.12;1.32;;;;;;;7.04;70.17;97731.13;4304288;81;21158;-92
2020/12/29 22:15:28;;;;;;;2.42;0.98;;;;;;;7.09;69.99;97747.09;4293295;82;21326;-93
2020/12/29 22:21:29;;;;;;;2.87;0.80;;;;;;;7.20;70.02;97747.92;4285238;80;21322;-93
2020/12/29 22:27:31;;;;;;;2.17;0.88;;;;;;;7.23;70.20;97758.84;4278938;82;21165;-92
2020/12/29 22:33:39;;;;;;;2.85;0.93;;;;;;;7.18;70.42;97757.05;4274523;82;21142;-94
2020/12/29 22:39:40;;;;;;;3.30;1.40;;;;;;;7.11;70.88;97763.23;4275140;82;21140;-92
2020/12/29 22:45:42;;;;;;;3.62;1.80;;;;;;;6.98;70.85;97771.53;4285157;82;21628;-92
2020/12/29 22:51:44;;;;;;;8.63;3.83;;;;;;;6.78;71.20;97731.39;4284702;82;21524;-92
2020/12/29 22:57:45;;;;;;;8.68;3.83;;;;;;;6.60;71.79;97712.80;4314704;81;21170;-93
2020/12/29 23:03:47;;;;;;;4.12;1.60;;;;;;;6.41;72.13;97723.37;4316325;81;22311;-92
2020/12/29 23:09:48;;;;;;;13.32;3.52;;;;;;;6.28;72.67;97737.84;4311064;81;21328;-92
2020/12/29 23:15:59;;;;;;;18.27;5.65;;;;;;;6.29;72.87;97735.91;4315924;81;21285;-94
2020/12/29 23:22:01;;;;;;;14.65;3.62;;;;;;;6.27;72.85;97739.00;4293974;81;21154;-92
2020/12/29 23:28:04;;;;;;;14.53;4.75;;;;;;;6.11;73.01;97730.89;4318393;81;21140;-93
2020/12/29 23:34:05;;;;;;;18.80;6.90;;;;;;;5.90;73.29;97723.33;4299452;82;21178;-93
2020/12/29 23:40:07;;;;;;;22.67;7.70;;;;;;;5.81;73.47;97707.14;4311777;81;21158;-92
2020/12/29 23:46:12;;;;;;;17.57;6.67;;;;;;;5.73;73.82;97712.30;4318348;81;21148;-95
2020/12/29 23:52:13;;;;;;;12.68;5.62;;;;;;;5.57;73.95;97716.61;4329330;80;21170;-93
2020/12/29 23:58:15;;;;;;;13.18;6.08;;;;;;;5.40;73.96;97719.92;4347902;80;21596;-93
